createdAt,value
2019-03-28T00:00:41.789Z,1029.95
2019-03-28T00:01:41.757Z,1030.00
2019-03-28T00:02:41.730Z,1030.03
2019-03-28T00:03:41.701Z,1029.97
2019-03-28T00:04:42.183Z,1029.95
2019-03-28T00:05:41.644Z,1029.99
2019-03-28T00:06:41.615Z,1030.02
2019-03-28T00:07:41.588Z,1030.02
2019-03-28T00:08:41.558Z,1029.97
2019-03-28T00:09:41.529Z,1030.01
2019-03-28T00:10:41.499Z,1030.03
2019-03-28T00:11:41.472Z,1030.03
2019-03-28T00:12:41.441Z,1030.03
2019-03-28T00:13:41.415Z,1029.99
2019-03-28T00:14:41.383Z,1030.04
2019-03-28T00:15:41.357Z,1030.05
2019-03-28T00:16:41.328Z,1030.01
2019-03-28T00:17:41.300Z,1030.05
2019-03-28T00:18:41.270Z,1030.02
2019-03-28T00:19:41.241Z,1030.03
2019-03-28T00:20:41.218Z,1030.03
2019-03-28T00:21:41.184Z,1030.05
2019-03-28T00:22:41.154Z,1030.02
2019-03-28T00:23:41.128Z,1030.01
2019-03-28T00:24:41.097Z,1030.03
2019-03-28T00:25:41.072Z,1030.03
2019-03-28T00:26:41.042Z,1030.03
2019-03-28T00:27:41.012Z,1030.08
2019-03-28T00:28:40.991Z,1030.02
2019-03-28T00:29:40.952Z,1030.01
2019-03-28T00:30:40.925Z,1030.03
2019-03-28T00:31:40.911Z,1030.06
2019-03-28T00:32:40.867Z,1030.00
2019-03-28T00:33:40.838Z,1030.04
2019-03-28T00:34:40.809Z,1029.99
2019-03-28T00:35:40.780Z,1030.02
2019-03-28T00:36:40.752Z,1030.01
2019-03-28T00:37:40.723Z,1029.98
2019-03-28T00:38:40.694Z,1030.05
2019-03-28T00:39:40.664Z,1030.01
2019-03-28T00:40:40.635Z,1030.02
2019-03-28T00:41:40.608Z,1029.97
2019-03-28T00:42:40.578Z,1030.02
2019-03-28T00:43:40.549Z,1029.97
2019-03-28T00:44:41.206Z,1030.03
2019-03-28T00:45:40.491Z,1029.98
2019-03-28T00:46:40.462Z,1030.00
2019-03-28T00:47:40.437Z,1030.04
2019-03-28T00:48:40.406Z,1030.01
2019-03-28T00:49:40.382Z,1029.99
2019-03-28T00:50:40.347Z,1030.02
2019-03-28T00:51:43.032Z,1029.97
2019-03-28T00:52:40.712Z,1029.99
2019-03-28T00:53:40.263Z,1030.02
2019-03-28T00:54:40.233Z,1030.04
2019-03-28T00:55:40.204Z,1030.03
2019-03-28T00:56:46.827Z,1030.03
2019-03-28T00:57:40.146Z,1030.01
2019-03-28T00:58:40.117Z,1030.03
2019-03-28T00:59:40.093Z,1030.04
2019-03-28T01:00:40.215Z,1030.06
2019-03-28T01:01:40.031Z,1030.05
2019-03-28T01:02:40.004Z,1030.02
2019-03-28T01:03:39.972Z,1030.07
2019-03-28T01:04:39.944Z,1030.10
2019-03-28T01:05:39.917Z,1030.07
2019-03-28T01:06:39.886Z,1030.08
2019-03-28T01:07:39.857Z,1030.09
2019-03-28T01:08:39.828Z,1030.09
2019-03-28T01:09:39.803Z,1030.08
2019-03-28T01:10:39.771Z,1030.08
2019-03-28T01:11:39.743Z,1030.07
2019-03-28T01:12:39.713Z,1030.07
2019-03-28T01:13:39.685Z,1030.10
2019-03-28T01:14:39.655Z,1030.08
2019-03-28T01:15:39.627Z,1030.07
2019-03-28T01:16:39.627Z,1030.05
2019-03-28T01:17:39.569Z,1030.07
2019-03-28T01:18:39.538Z,1030.07
2019-03-28T01:19:39.511Z,1030.11
2019-03-28T01:20:39.482Z,1030.09
2019-03-28T01:21:39.456Z,1030.09
2019-03-28T01:22:39.427Z,1030.15
2019-03-28T01:23:39.397Z,1030.13
2019-03-28T01:24:39.367Z,1030.14
2019-03-28T01:25:39.338Z,1030.18
2019-03-28T01:26:39.312Z,1030.19
2019-03-28T01:27:39.281Z,1030.17
2019-03-28T01:28:39.257Z,1030.15
2019-03-28T01:29:39.222Z,1030.14
2019-03-28T01:30:39.193Z,1030.12
2019-03-28T01:31:39.165Z,1030.10
2019-03-28T01:32:39.136Z,1030.08
2019-03-28T01:33:39.112Z,1030.15
2019-03-28T01:34:39.079Z,1030.10
2019-03-28T01:35:39.049Z,1030.07
2019-03-28T01:36:39.021Z,1030.08
2019-03-28T01:37:38.991Z,1030.13
2019-03-28T01:38:38.964Z,1030.15
2019-03-28T01:39:38.934Z,1030.10
2019-03-28T01:40:38.905Z,1030.07
2019-03-28T01:41:38.878Z,1030.07
2019-03-28T01:42:38.847Z,1030.08
2019-03-28T01:43:38.819Z,1030.11
2019-03-28T01:44:38.791Z,1030.11
2019-03-28T01:45:38.762Z,1030.06
2019-03-28T01:46:38.732Z,1030.12
2019-03-28T01:47:38.703Z,1030.07
2019-03-28T01:48:38.676Z,1030.10
2019-03-28T01:49:38.646Z,1030.12
2019-03-28T01:50:38.616Z,1030.14
2019-03-28T01:51:38.588Z,1030.11
2019-03-28T01:52:38.559Z,1030.11
2019-03-28T01:53:38.532Z,1030.10
2019-03-28T01:54:38.500Z,1030.14
2019-03-28T01:55:38.472Z,1030.15
2019-03-28T01:56:38.445Z,1030.14
2019-03-28T01:57:38.912Z,1030.13
2019-03-28T01:58:38.385Z,1030.13
2019-03-28T01:59:38.356Z,1030.16
2019-03-28T02:00:38.485Z,1030.12
2019-03-28T02:01:38.299Z,1030.13
2019-03-28T02:02:38.269Z,1030.16
2019-03-28T02:03:38.241Z,1030.12
2019-03-28T02:04:38.212Z,1030.11
2019-03-28T02:05:38.185Z,1030.11
2019-03-28T02:06:38.154Z,1030.12
2019-03-28T02:07:38.126Z,1030.08
2019-03-28T02:08:38.100Z,1030.09
2019-03-28T02:09:38.073Z,1030.15
2019-03-28T02:10:38.038Z,1030.16
2019-03-28T02:11:38.010Z,1030.15
2019-03-28T02:12:37.988Z,1030.12
2019-03-28T02:13:37.954Z,1030.15
2019-03-28T02:14:38.330Z,1030.13
2019-03-28T02:15:37.898Z,1030.10
2019-03-28T02:16:37.866Z,1030.12
2019-03-28T02:17:37.836Z,1030.14
2019-03-28T02:18:37.807Z,1030.14
2019-03-28T02:19:37.777Z,1030.11
2019-03-28T02:20:37.749Z,1030.12
2019-03-28T02:21:37.722Z,1030.11
2019-03-28T02:22:37.691Z,1030.12
2019-03-28T02:23:37.663Z,1030.10
2019-03-28T02:24:37.633Z,1030.07
2019-03-28T02:25:37.604Z,1030.06
2019-03-28T02:26:37.576Z,1030.07
2019-03-28T02:27:37.545Z,1030.07
2019-03-28T02:28:37.517Z,1030.08
2019-03-28T02:29:37.487Z,1030.12
2019-03-28T02:30:37.458Z,1030.10
2019-03-28T02:31:37.430Z,1030.14
2019-03-28T02:32:37.401Z,1030.16
2019-03-28T02:33:37.372Z,1030.18
2019-03-28T02:34:37.345Z,1030.17
2019-03-28T02:35:37.320Z,1030.25
2019-03-28T02:36:37.291Z,1030.19
2019-03-28T02:37:37.256Z,1030.22
2019-03-28T02:38:37.229Z,1030.28
2019-03-28T02:39:37.200Z,1030.24
2019-03-28T02:40:37.169Z,1030.22
2019-03-28T02:41:37.141Z,1030.26
2019-03-28T02:42:37.115Z,1030.24
2019-03-28T02:43:37.095Z,1030.26
2019-03-28T02:44:37.589Z,1030.26
2019-03-28T02:45:37.027Z,1030.28
2019-03-28T02:46:36.997Z,1030.29
2019-03-28T02:47:36.969Z,1030.25
2019-03-28T02:48:36.938Z,1030.26
2019-03-28T02:49:36.913Z,1030.30
2019-03-28T02:50:37.715Z,1030.31
2019-03-28T02:51:36.861Z,1030.31
2019-03-28T02:52:36.854Z,1030.34
2019-03-28T02:53:36.794Z,1030.34
2019-03-28T02:54:36.764Z,1030.33
2019-03-28T02:55:36.735Z,1030.34
2019-03-28T02:56:36.706Z,1030.33
2019-03-28T02:57:41.726Z,1030.34
2019-03-28T02:58:36.953Z,1030.38
2019-03-28T02:59:36.619Z,1030.33
2019-03-28T03:00:36.599Z,1030.35
2019-03-28T03:01:36.570Z,1030.33
2019-03-28T03:02:36.537Z,1030.31
2019-03-28T03:03:36.506Z,1030.32
2019-03-28T03:04:36.474Z,1030.31
2019-03-28T03:05:36.447Z,1030.30
2019-03-28T03:06:36.416Z,1030.34
2019-03-28T03:07:36.394Z,1030.31
2019-03-28T03:08:36.361Z,1030.33
2019-03-28T03:09:36.334Z,1030.33
2019-03-28T03:10:36.304Z,1030.33
2019-03-28T03:11:36.279Z,1030.37
2019-03-28T03:12:36.243Z,1030.39
2019-03-28T03:13:36.213Z,1030.37
2019-03-28T03:14:36.185Z,1030.35
2019-03-28T03:15:36.155Z,1030.37
2019-03-28T03:16:36.128Z,1030.40
2019-03-28T03:17:36.099Z,1030.37
2019-03-28T03:18:36.071Z,1030.38
2019-03-28T03:19:36.039Z,1030.41
2019-03-28T03:20:36.012Z,1030.39
2019-03-28T03:21:36.314Z,1030.36
2019-03-28T03:22:35.952Z,1030.47
2019-03-28T03:23:35.929Z,1030.40
2019-03-28T03:24:35.895Z,1030.42
2019-03-28T03:25:35.868Z,1030.36
2019-03-28T03:26:35.839Z,1030.41
2019-03-28T03:27:35.809Z,1030.37
2019-03-28T03:28:35.896Z,1030.40
2019-03-28T03:29:35.754Z,1030.41
2019-03-28T03:30:35.722Z,1030.41
2019-03-28T03:31:35.696Z,1030.41
2019-03-28T03:32:35.665Z,1030.43
2019-03-28T03:33:37.115Z,1030.43
2019-03-28T03:34:35.605Z,1030.45
2019-03-28T03:35:35.578Z,1030.44
2019-03-28T03:36:35.550Z,1030.42
2019-03-28T03:37:35.520Z,1030.44
2019-03-28T03:38:35.493Z,1030.43
2019-03-28T03:39:35.470Z,1030.41
2019-03-28T03:40:35.440Z,1030.44
2019-03-28T03:41:35.406Z,1030.44
2019-03-28T03:42:35.379Z,1030.45
2019-03-28T03:43:35.345Z,1030.47
2019-03-28T03:44:35.319Z,1030.40
2019-03-28T03:45:35.721Z,1030.44
2019-03-28T03:46:35.259Z,1030.46
2019-03-28T03:47:35.230Z,1030.41
2019-03-28T03:48:35.204Z,1030.49
2019-03-28T03:49:35.178Z,1030.45
2019-03-28T03:50:35.145Z,1030.51
2019-03-28T03:51:35.122Z,1030.50
2019-03-28T03:52:35.085Z,1030.48
2019-03-28T03:53:35.058Z,1030.53
2019-03-28T03:54:35.028Z,1030.53
2019-03-28T03:55:34.999Z,1030.54
2019-03-28T03:56:34.972Z,1030.53
2019-03-28T03:57:34.966Z,1030.54
2019-03-28T03:58:34.911Z,1030.48
2019-03-28T03:59:34.883Z,1030.48
2019-03-28T04:00:34.860Z,1030.50
2019-03-28T04:01:34.826Z,1030.46
2019-03-28T04:02:34.796Z,1030.47
2019-03-28T04:03:34.769Z,1030.47
2019-03-28T04:04:34.754Z,1030.52
2019-03-28T04:05:34.715Z,1030.50
2019-03-28T04:06:34.681Z,1030.46
2019-03-28T04:07:34.654Z,1030.46
2019-03-28T04:08:34.625Z,1030.48
2019-03-28T04:09:34.595Z,1030.45
2019-03-28T04:10:34.577Z,1030.46
2019-03-28T04:11:34.550Z,1030.46
2019-03-28T04:12:34.518Z,1030.42
2019-03-28T04:13:34.485Z,1030.45
2019-03-28T04:14:34.459Z,1030.42
2019-03-28T04:15:34.420Z,1030.50
2019-03-28T04:16:34.393Z,1030.50
2019-03-28T04:17:34.368Z,1030.55
2019-03-28T04:18:34.340Z,1030.58
2019-03-28T04:19:34.309Z,1030.60
2019-03-28T04:20:34.277Z,1030.64
2019-03-28T04:21:34.251Z,1030.62
2019-03-28T04:22:34.223Z,1030.59
2019-03-28T04:23:34.191Z,1030.61
2019-03-28T04:24:34.162Z,1030.60
2019-03-28T04:25:34.143Z,1030.63
2019-03-28T04:26:34.103Z,1030.64
2019-03-28T04:27:34.075Z,1030.61
2019-03-28T04:28:34.045Z,1030.58
2019-03-28T04:29:34.019Z,1030.61
2019-03-28T04:30:33.989Z,1030.60
2019-03-28T04:31:33.965Z,1030.60
2019-03-28T04:32:33.939Z,1030.62
2019-03-28T04:33:33.905Z,1030.60
2019-03-28T04:34:33.873Z,1030.62
2019-03-28T04:35:33.849Z,1030.62
2019-03-28T04:36:33.816Z,1030.65
2019-03-28T04:37:33.789Z,1030.62
2019-03-28T04:38:33.758Z,1030.59
2019-03-28T04:39:33.729Z,1030.59
2019-03-28T04:40:34.448Z,1030.62
2019-03-28T04:41:33.673Z,1030.62
2019-03-28T04:42:33.642Z,1030.61
2019-03-28T04:43:33.616Z,1030.55
2019-03-28T04:44:33.587Z,1030.58
2019-03-28T04:45:33.557Z,1030.58
2019-03-28T04:46:33.529Z,1030.57
2019-03-28T04:47:33.500Z,1030.59
2019-03-28T04:48:33.474Z,1030.59
2019-03-28T04:49:33.447Z,1030.62
2019-03-28T04:50:33.414Z,1030.62
2019-03-28T04:51:33.386Z,1030.63
2019-03-28T04:52:33.358Z,1030.67
2019-03-28T04:53:33.329Z,1030.68
2019-03-28T04:54:33.299Z,1030.68
2019-03-28T04:55:33.270Z,1030.69
2019-03-28T04:56:33.251Z,1030.67
2019-03-28T04:57:33.215Z,1030.67
2019-03-28T04:58:43.819Z,1030.71
2019-03-28T04:59:33.156Z,1030.72
2019-03-28T05:00:33.382Z,1030.71
2019-03-28T05:01:33.104Z,1030.68
2019-03-28T05:02:33.071Z,1030.64
2019-03-28T05:03:33.044Z,1030.65
2019-03-28T05:04:33.034Z,1030.66
2019-03-28T05:05:32.990Z,1030.67
2019-03-28T05:06:32.955Z,1030.64
2019-03-28T05:07:32.929Z,1030.64
2019-03-28T05:08:33.417Z,1030.69
2019-03-28T05:09:32.872Z,1030.69
2019-03-28T05:10:33.195Z,1030.68
2019-03-28T05:11:33.333Z,1030.69
2019-03-28T05:12:32.786Z,1030.67
2019-03-28T05:13:32.758Z,1030.65
2019-03-28T05:14:32.729Z,1030.64
2019-03-28T05:15:32.704Z,1030.68
2019-03-28T05:16:32.671Z,1030.69
2019-03-28T05:17:32.645Z,1030.68
2019-03-28T05:18:32.616Z,1030.69
2019-03-28T05:19:32.585Z,1030.76
2019-03-28T05:20:32.558Z,1030.76
2019-03-28T05:21:32.529Z,1030.77
2019-03-28T05:22:32.500Z,1030.77
2019-03-28T05:23:32.472Z,1030.78
2019-03-28T05:24:32.645Z,1030.78
2019-03-28T05:25:32.414Z,1030.80
2019-03-28T05:26:32.388Z,1030.78
2019-03-28T05:27:32.880Z,1030.77
2019-03-28T05:28:32.334Z,1030.82
2019-03-28T05:29:32.302Z,1030.81
2019-03-28T05:30:32.273Z,1030.82
2019-03-28T05:31:32.243Z,1030.79
2019-03-28T05:32:32.217Z,1030.83
2019-03-28T05:33:32.188Z,1030.81
2019-03-28T05:34:32.159Z,1030.83
2019-03-28T05:35:32.132Z,1030.86
2019-03-28T05:36:32.106Z,1030.86
2019-03-28T05:37:32.074Z,1030.90
2019-03-28T05:38:32.044Z,1030.92
2019-03-28T05:39:32.016Z,1030.89
2019-03-28T05:40:31.989Z,1030.94
2019-03-28T05:41:31.961Z,1030.94
2019-03-28T05:42:31.934Z,1030.99
2019-03-28T05:43:31.902Z,1030.96
2019-03-28T05:44:31.876Z,1031.03
2019-03-28T05:45:31.848Z,1031.02
2019-03-28T05:46:31.818Z,1031.05
2019-03-28T05:47:31.792Z,1031.05
2019-03-28T05:48:31.765Z,1031.06
2019-03-28T05:49:31.734Z,1031.04
2019-03-28T05:50:31.705Z,1031.06
2019-03-28T05:51:31.679Z,1031.06
2019-03-28T05:52:31.649Z,1031.06
2019-03-28T05:53:31.620Z,1031.09
2019-03-28T05:54:31.591Z,1031.10
2019-03-28T05:55:31.565Z,1031.13
2019-03-28T05:56:31.535Z,1031.13
2019-03-28T05:57:31.507Z,1031.12
2019-03-28T05:58:31.478Z,1031.15
2019-03-28T05:59:31.453Z,1031.09
2019-03-28T06:00:31.422Z,1031.13
2019-03-28T06:01:32.311Z,1031.14
2019-03-28T06:02:31.363Z,1031.15
2019-03-28T06:03:31.336Z,1031.15
2019-03-28T06:04:31.311Z,1031.19
2019-03-28T06:05:31.280Z,1031.11
2019-03-28T06:06:31.251Z,1031.15
2019-03-28T06:07:31.225Z,1031.20
2019-03-28T06:08:31.195Z,1031.19
2019-03-28T06:09:31.171Z,1031.20
2019-03-28T06:10:31.138Z,1031.21
2019-03-28T06:11:31.133Z,1031.21
2019-03-28T06:12:31.082Z,1031.21
2019-03-28T06:13:31.053Z,1031.22
2019-03-28T06:14:31.024Z,1031.27
2019-03-28T06:15:30.997Z,1031.31
2019-03-28T06:16:31.042Z,1031.30
2019-03-28T06:17:30.940Z,1031.32
2019-03-28T06:18:30.912Z,1031.34
2019-03-28T06:19:30.885Z,1031.41
2019-03-28T06:20:30.856Z,1031.41
2019-03-28T06:21:30.829Z,1031.40
2019-03-28T06:22:30.799Z,1031.41
2019-03-28T06:23:30.772Z,1031.44
2019-03-28T06:24:31.249Z,1031.51
2019-03-28T06:25:30.716Z,1031.37
2019-03-28T06:26:30.690Z,1031.40
2019-03-28T06:27:30.661Z,1031.39
2019-03-28T06:28:30.631Z,1031.41
2019-03-28T06:29:30.602Z,1031.39
2019-03-28T06:30:30.575Z,1031.40
2019-03-28T06:31:30.549Z,1031.39
2019-03-28T06:32:42.254Z,1031.41
2019-03-28T06:33:30.492Z,1031.44
2019-03-28T06:34:30.463Z,1031.44
2019-03-28T06:35:30.435Z,1031.47
2019-03-28T06:36:30.405Z,1031.47
2019-03-28T06:37:30.380Z,1031.45
2019-03-28T06:38:30.353Z,1031.47
2019-03-28T06:39:30.323Z,1031.47
2019-03-28T06:40:31.307Z,1031.52
2019-03-28T06:41:30.266Z,1031.49
2019-03-28T06:42:30.239Z,1031.53
2019-03-28T06:43:30.213Z,1031.55
2019-03-28T06:44:30.184Z,1031.52
2019-03-28T06:45:30.154Z,1031.52
2019-03-28T06:46:30.125Z,1031.52
2019-03-28T06:47:30.098Z,1031.56
2019-03-28T06:48:30.068Z,1031.54
2019-03-28T06:49:30.042Z,1031.57
2019-03-28T06:50:30.013Z,1031.61
2019-03-28T06:51:29.985Z,1031.63
2019-03-28T06:52:29.958Z,1031.59
2019-03-28T06:53:29.929Z,1031.65
2019-03-28T06:54:30.577Z,1031.61
2019-03-28T06:55:29.877Z,1031.66
2019-03-28T06:56:29.846Z,1031.69
2019-03-28T06:57:29.818Z,1031.69
2019-03-28T06:58:29.788Z,1031.71
2019-03-28T06:59:37.119Z,1031.68
2019-03-28T07:00:29.734Z,1031.63
2019-03-28T07:01:29.706Z,1031.64
2019-03-28T07:02:29.680Z,1031.64
2019-03-28T07:03:29.649Z,1031.63
2019-03-28T07:04:30.258Z,1031.61
2019-03-28T07:05:29.595Z,1031.62
2019-03-28T07:06:29.569Z,1031.60
2019-03-28T07:07:29.537Z,1031.61
2019-03-28T07:08:29.510Z,1031.65
2019-03-28T07:09:29.483Z,1031.68
2019-03-28T07:10:29.455Z,1031.72
2019-03-28T07:11:29.428Z,1031.71
2019-03-28T07:12:29.398Z,1031.70
2019-03-28T07:13:29.371Z,1031.75
2019-03-28T07:14:29.345Z,1031.75
2019-03-28T07:15:29.315Z,1031.73
2019-03-28T07:16:29.288Z,1031.74
2019-03-28T07:17:29.268Z,1031.75
2019-03-28T07:18:29.232Z,1031.73
2019-03-28T07:19:29.243Z,1031.74
2019-03-28T07:20:29.177Z,1031.75
2019-03-28T07:21:29.149Z,1031.77
2019-03-28T07:22:29.120Z,1031.78
2019-03-28T07:23:29.092Z,1031.78
2019-03-28T07:24:29.064Z,1031.78
2019-03-28T07:25:29.038Z,1031.79
2019-03-28T07:26:29.010Z,1031.80
2019-03-28T07:27:28.981Z,1031.85
2019-03-28T07:28:28.954Z,1031.84
2019-03-28T07:29:28.937Z,1031.78
2019-03-28T07:30:28.898Z,1031.77
2019-03-28T07:31:28.869Z,1031.79
2019-03-28T07:32:28.843Z,1031.83
2019-03-28T07:33:28.823Z,1031.84
2019-03-28T07:34:28.787Z,1031.87
2019-03-28T07:35:28.760Z,1031.87
2019-03-28T07:36:28.732Z,1031.95
2019-03-28T07:37:28.707Z,1031.96
2019-03-28T07:38:28.676Z,1031.92
2019-03-28T07:39:28.650Z,1031.96
2019-03-28T07:40:28.621Z,1031.95
2019-03-28T07:41:28.593Z,1031.90
2019-03-28T07:42:28.564Z,1031.92
2019-03-28T07:43:28.538Z,1031.88
2019-03-28T07:44:28.692Z,1031.86
2019-03-28T07:45:28.485Z,1031.89
2019-03-28T07:46:28.454Z,1031.87
2019-03-28T07:47:28.428Z,1031.91
2019-03-28T07:48:28.400Z,1031.89
2019-03-28T07:49:28.373Z,1031.93
2019-03-28T07:50:28.344Z,1031.97
2019-03-28T07:51:28.327Z,1031.93
2019-03-28T07:52:28.291Z,1031.98
2019-03-28T07:53:28.263Z,1032.02
2019-03-28T07:54:28.234Z,1032.04
2019-03-28T07:55:28.207Z,1032.11
2019-03-28T07:56:28.179Z,1032.11
2019-03-28T07:57:28.154Z,1032.15
2019-03-28T07:58:28.125Z,1032.13
2019-03-28T07:59:28.100Z,1032.15
2019-03-28T08:00:28.070Z,1032.15
2019-03-28T08:01:28.055Z,1032.22
2019-03-28T08:02:28.016Z,1032.22
2019-03-28T08:03:27.985Z,1032.19
2019-03-28T08:04:27.958Z,1032.19
2019-03-28T08:05:27.932Z,1032.21
2019-03-28T08:06:27.904Z,1032.22
2019-03-28T08:07:27.879Z,1032.16
2019-03-28T08:08:38.237Z,1032.13
2019-03-28T08:09:36.598Z,1032.18
2019-03-28T08:10:27.792Z,1032.15
2019-03-28T08:11:27.890Z,1032.20
2019-03-28T08:12:27.737Z,1032.17
2019-03-28T08:13:27.711Z,1032.19
2019-03-28T08:14:27.682Z,1032.20
2019-03-28T08:15:27.655Z,1032.21
2019-03-28T08:16:28.924Z,1032.23
2019-03-28T08:17:27.599Z,1032.22
2019-03-28T08:18:27.572Z,1032.22
2019-03-28T08:19:27.545Z,1032.21
2019-03-28T08:20:27.516Z,1032.18
2019-03-28T08:21:27.490Z,1032.20
2019-03-28T08:22:29.679Z,1032.20
2019-03-28T08:23:27.434Z,1032.19
2019-03-28T08:24:27.406Z,1032.18
2019-03-28T08:25:27.379Z,1032.16
2019-03-28T08:26:30.074Z,1032.20
2019-03-28T08:27:27.324Z,1032.20
2019-03-28T08:28:27.296Z,1032.21
2019-03-28T08:29:27.270Z,1032.18
2019-03-28T08:30:27.240Z,1032.21
2019-03-28T08:31:27.212Z,1032.22
2019-03-28T08:32:27.186Z,1032.20
2019-03-28T08:33:27.158Z,1032.24
2019-03-28T08:34:27.129Z,1032.24
2019-03-28T08:35:27.102Z,1032.23
2019-03-28T08:36:27.074Z,1032.29
2019-03-28T08:37:27.047Z,1032.28
2019-03-28T08:38:27.018Z,1032.28
2019-03-28T08:39:26.991Z,1032.30
2019-03-28T08:40:26.964Z,1032.28
2019-03-28T08:41:26.937Z,1032.29
2019-03-28T08:42:26.909Z,1032.32
2019-03-28T08:43:26.880Z,1032.30
2019-03-28T08:44:26.852Z,1032.30
2019-03-28T08:45:26.827Z,1032.32
2019-03-28T08:46:26.798Z,1032.31
2019-03-28T08:47:26.771Z,1032.28
2019-03-28T08:48:26.742Z,1032.33
2019-03-28T08:49:26.715Z,1032.34
2019-03-28T08:50:26.691Z,1032.39
2019-03-28T08:51:27.499Z,1032.40
2019-03-28T08:52:26.634Z,1032.39
2019-03-28T08:53:26.608Z,1032.43
2019-03-28T08:54:26.578Z,1032.40
2019-03-28T08:55:26.551Z,1032.42
2019-03-28T08:56:26.525Z,1032.44
2019-03-28T08:57:26.502Z,1032.42
2019-03-28T08:58:26.468Z,1032.45
2019-03-28T08:59:26.441Z,1032.44
2019-03-28T09:00:33.063Z,1032.46
2019-03-28T09:01:26.388Z,1032.46
2019-03-28T09:02:26.359Z,1032.46
2019-03-28T09:03:26.331Z,1032.48
2019-03-28T09:04:26.306Z,1032.47
2019-03-28T09:05:26.281Z,1032.50
2019-03-28T09:06:26.258Z,1032.47
2019-03-28T09:07:26.231Z,1032.52
2019-03-28T09:08:26.198Z,1032.52
2019-03-28T09:09:26.171Z,1032.55
2019-03-28T09:10:26.142Z,1032.57
2019-03-28T09:11:26.116Z,1032.57
2019-03-28T09:12:26.090Z,1032.54
2019-03-28T09:13:26.063Z,1032.55
2019-03-28T09:14:26.038Z,1032.55
2019-03-28T09:15:26.010Z,1032.53
2019-03-28T09:16:25.983Z,1032.51
2019-03-28T09:17:25.954Z,1032.50
2019-03-28T09:18:25.927Z,1032.50
2019-03-28T09:19:25.912Z,1032.49
2019-03-28T09:20:25.874Z,1032.45
2019-03-28T09:21:25.846Z,1032.42
2019-03-28T09:22:25.818Z,1032.46
2019-03-28T09:23:25.792Z,1032.44
2019-03-28T09:24:25.765Z,1032.39
2019-03-28T09:25:25.737Z,1032.39
2019-03-28T09:26:25.711Z,1032.38
2019-03-28T09:27:25.684Z,1032.39
2019-03-28T09:28:25.666Z,1032.38
2019-03-28T09:29:25.632Z,1032.37
2019-03-28T09:30:25.605Z,1032.42
2019-03-28T09:31:25.577Z,1032.38
2019-03-28T09:32:25.550Z,1032.38
2019-03-28T09:33:25.525Z,1032.38
2019-03-28T09:34:25.510Z,1032.36
2019-03-28T09:35:25.469Z,1032.40
2019-03-28T09:36:25.451Z,1032.34
2019-03-28T09:37:25.415Z,1032.40
2019-03-28T09:38:25.388Z,1032.35
2019-03-28T09:39:25.369Z,1032.37
2019-03-28T09:40:25.337Z,1032.40
2019-03-28T09:41:25.309Z,1032.38
2019-03-28T09:42:25.283Z,1032.39
2019-03-28T09:43:25.255Z,1032.36
2019-03-28T09:44:25.228Z,1032.39
2019-03-28T09:45:25.201Z,1032.44
2019-03-28T09:46:25.176Z,1032.43
2019-03-28T09:47:25.147Z,1032.42
2019-03-28T09:48:25.121Z,1032.43
2019-03-28T09:49:25.094Z,1032.42
2019-03-28T09:50:25.066Z,1032.42
2019-03-28T09:51:25.041Z,1032.43
2019-03-28T09:52:25.014Z,1032.44
2019-03-28T09:53:24.989Z,1032.46
2019-03-28T09:54:24.959Z,1032.45
2019-03-28T09:55:24.934Z,1032.47
2019-03-28T09:56:24.907Z,1032.46
2019-03-28T09:57:24.880Z,1032.45
2019-03-28T09:58:24.854Z,1032.44
2019-03-28T09:59:24.827Z,1032.46
2019-03-28T10:00:24.804Z,1032.45
2019-03-28T10:01:24.776Z,1032.45
2019-03-28T10:02:24.746Z,1032.38
2019-03-28T10:03:24.721Z,1032.45
2019-03-28T10:04:24.693Z,1032.43
2019-03-28T10:05:24.669Z,1032.43
2019-03-28T10:06:24.640Z,1032.46
2019-03-28T10:07:24.611Z,1032.44
2019-03-28T10:08:24.586Z,1032.43
2019-03-28T10:09:24.559Z,1032.44
2019-03-28T10:10:24.532Z,1032.43
2019-03-28T10:11:24.504Z,1032.41
2019-03-28T10:12:24.478Z,1032.38
2019-03-28T10:13:24.451Z,1032.35
2019-03-28T10:14:24.424Z,1032.36
2019-03-28T10:15:24.400Z,1032.31
2019-03-28T10:16:24.384Z,1032.33
2019-03-28T10:17:24.347Z,1032.27
2019-03-28T10:18:24.317Z,1032.31
2019-03-28T10:19:24.292Z,1032.30
2019-03-28T10:20:24.264Z,1032.30
2019-03-28T10:21:24.241Z,1032.31
2019-03-28T10:22:24.212Z,1032.38
2019-03-28T10:23:24.184Z,1032.33
2019-03-28T10:24:24.160Z,1032.38
2019-03-28T10:25:24.132Z,1032.31
2019-03-28T10:26:24.105Z,1032.33
2019-03-28T10:27:24.080Z,1032.36
2019-03-28T10:28:24.052Z,1032.32
2019-03-28T10:29:24.027Z,1032.36
2019-03-28T10:30:24.021Z,1032.35
2019-03-28T10:31:23.974Z,1032.35
2019-03-28T10:32:23.946Z,1032.34
2019-03-28T10:33:24.536Z,1032.33
2019-03-28T10:34:23.895Z,1032.37
2019-03-28T10:35:23.868Z,1032.33
2019-03-28T10:36:23.844Z,1032.33
2019-03-28T10:37:23.816Z,1032.29
2019-03-28T10:38:23.792Z,1032.31
2019-03-28T10:39:23.765Z,1032.29
2019-03-28T10:40:23.737Z,1032.31
2019-03-28T10:41:25.871Z,1032.36
2019-03-28T10:42:23.684Z,1032.38
2019-03-28T10:43:23.660Z,1032.36
2019-03-28T10:44:23.632Z,1032.42
2019-03-28T10:45:23.606Z,1032.42
2019-03-28T10:46:23.578Z,1032.41
2019-03-28T10:47:23.553Z,1032.42
2019-03-28T10:48:23.652Z,1032.37
2019-03-28T10:49:23.501Z,1032.38
2019-03-28T10:50:23.474Z,1032.40
2019-03-28T10:51:23.447Z,1032.44
2019-03-28T10:52:23.422Z,1032.45
2019-03-28T10:53:23.396Z,1032.52
2019-03-28T10:54:25.788Z,1032.55
2019-03-28T10:55:23.342Z,1032.54
2019-03-28T10:56:24.185Z,1032.53
2019-03-28T10:57:29.941Z,1032.60
2019-03-28T10:58:23.263Z,1032.53
2019-03-28T10:59:24.065Z,1032.58
2019-03-28T11:00:24.524Z,1032.55
2019-03-28T11:01:41.486Z,1032.58
2019-03-28T11:02:23.158Z,1032.61
2019-03-28T11:03:23.133Z,1032.55
2019-03-28T11:04:23.107Z,1032.58
2019-03-28T11:05:23.079Z,1032.56
2019-03-28T11:06:23.052Z,1032.55
2019-03-28T11:07:23.026Z,1032.58
2019-03-28T11:08:23.002Z,1032.61
2019-03-28T11:09:22.975Z,1032.65
2019-03-28T11:10:22.948Z,1032.58
2019-03-28T11:11:22.926Z,1032.58
2019-03-28T11:12:22.897Z,1032.53
2019-03-28T11:13:22.871Z,1032.56
2019-03-28T11:14:22.843Z,1032.55
2019-03-28T11:15:22.818Z,1032.58
2019-03-28T11:16:22.791Z,1032.66
2019-03-28T11:17:22.765Z,1032.62
2019-03-28T11:18:22.739Z,1032.59
2019-03-28T11:19:22.713Z,1032.58
2019-03-28T11:20:22.687Z,1032.57
2019-03-28T11:21:22.662Z,1032.62
2019-03-28T11:22:22.632Z,1032.62
2019-03-28T11:23:22.608Z,1032.60
2019-03-28T11:24:22.581Z,1032.64
2019-03-28T11:25:22.555Z,1032.61
2019-03-28T11:26:22.530Z,1032.61
2019-03-28T11:27:23.547Z,1032.65
2019-03-28T11:28:23.484Z,1032.64
2019-03-28T11:29:22.450Z,1032.66
2019-03-28T11:30:22.424Z,1032.68
2019-03-28T11:31:22.397Z,1032.70
2019-03-28T11:32:22.372Z,1032.70
2019-03-28T11:33:22.489Z,1032.70
2019-03-28T11:34:22.319Z,1032.69
2019-03-28T11:35:22.293Z,1032.66
2019-03-28T11:36:22.274Z,1032.66
2019-03-28T11:37:26.502Z,1032.69
2019-03-28T11:38:22.217Z,1032.70
2019-03-28T11:39:22.189Z,1032.71
2019-03-28T11:40:24.567Z,1032.73
2019-03-28T11:41:22.137Z,1032.73
2019-03-28T11:42:22.111Z,1032.74
2019-03-28T11:43:22.090Z,1032.73
2019-03-28T11:44:22.059Z,1032.75
2019-03-28T11:45:22.033Z,1032.77
2019-03-28T11:46:22.006Z,1032.80
2019-03-28T11:47:22.498Z,1032.78
2019-03-28T11:48:21.954Z,1032.74
2019-03-28T11:49:21.930Z,1032.78
2019-03-28T11:50:21.901Z,1032.81
2019-03-28T11:51:21.876Z,1032.77
2019-03-28T11:52:21.850Z,1032.75
2019-03-28T11:53:21.826Z,1032.74
2019-03-28T11:54:21.798Z,1032.80
2019-03-28T11:55:21.773Z,1032.77
2019-03-28T11:56:21.747Z,1032.79
2019-03-28T11:57:21.721Z,1032.82
2019-03-28T11:58:21.694Z,1032.81
2019-03-28T11:59:21.667Z,1032.81
2019-03-28T12:00:21.643Z,1032.77
2019-03-28T12:01:21.615Z,1032.76
2019-03-28T12:02:21.589Z,1032.79
2019-03-28T12:03:21.563Z,1032.76
2019-03-28T12:04:21.538Z,1032.77
2019-03-28T12:05:21.512Z,1032.80